Time;durP1;ratioP1;P1;durP2;ratioP2;P2;SDS_P1;SDS_P2;PMS_P1;PMS_P2;Temp;Humidity;BMP_temperature;BMP_pressure;BME280_temperature;BME280_humidity;BME280_pressure;Samples;Min_cycle;Max_cycle;Signal;HPM_P1;HPM_P2
2024/03/17 00:01:12;;;;;;;0.10;0.10;;;;;;;;;;6317720;28;20024;-76
2024/03/17 00:04:12;;;;;;;0.47;0.30;;;;;;;;;;6316804;28;20127;-77
2024/03/17 00:07:13;;;;;;;0.80;0.40;;;;;;;;;;6318901;28;20024;-76
2024/03/17 00:10:15;;;;;;;0.30;0.20;;;;;;;;;;6318364;28;20118;-76
2024/03/17 00:13:15;;;;;;;0.35;0.30;;;;;;;;;;6307003;28;20472;-76
2024/03/17 00:16:18;;;;;;;0.70;0.20;;;;;;;;;;6294704;28;20028;-78
2024/03/17 00:19:18;;;;;;;0.20;0.20;;;;;;;;;;6310908;28;20069;-77
2024/03/17 00:22:19;;;;;;;0.30;0.30;;;;;;;;;;6318490;28;20028;-77
2024/03/17 00:25:20;;;;;;;0.52;0.38;;;;;;;;;;6319775;28;20020;-77
2024/03/17 00:28:20;;;;;;;0.63;0.37;;;;;;;;;;6317987;28;20028;-77
2024/03/17 00:31:21;;;;;;;0.40;0.30;;;;;;;;;;6296236;28;20547;-77
2024/03/17 00:34:21;;;;;;;0.30;0.30;;;;;;;;;;6317869;28;20116;-77
2024/03/17 00:37:21;;;;;;;0.87;0.30;;;;;;;;;;6319392;28;20499;-77
2024/03/17 00:40:22;;;;;;;0.30;0.30;;;;;;;;;;6318213;28;20031;-76
2024/03/17 00:43:22;;;;;;;0.40;0.40;;;;;;;;;;6319035;28;20035;-77
2024/03/17 00:46:22;;;;;;;0.20;0.20;;;;;;;;;;6321031;28;20016;-77
2024/03/17 00:49:22;;;;;;;0.30;0.30;;;;;;;;;;6317707;28;20039;-77
2024/03/17 00:52:23;;;;;;;0.30;0.30;;;;;;;;;;6319951;28;20031;-77
2024/03/17 00:55:23;;;;;;;0.50;0.30;;;;;;;;;;6321022;28;20404;-77
2024/03/17 00:58:24;;;;;;;0.43;0.33;;;;;;;;;;6320756;28;20023;-77
2024/03/17 01:01:24;;;;;;;0.65;0.32;;;;;;;;;;6320685;28;20099;-77
2024/03/17 01:04:25;;;;;;;0.38;0.38;;;;;;;;;;6318276;28;20487;-76
2024/03/17 01:07:25;;;;;;;0.60;0.50;;;;;;;;;;6319645;28;20024;-77
2024/03/17 01:10:25;;;;;;;0.23;0.23;;;;;;;;;;6318843;28;20549;-77
2024/03/17 01:13:26;;;;;;;0.50;0.40;;;;;;;;;;6319298;28;20400;-77
2024/03/17 01:16:26;;;;;;;0.50;0.30;;;;;;;;;;6322685;28;20368;-77
2024/03/17 01:19:27;;;;;;;0.70;0.30;;;;;;;;;;6321790;28;20469;-77
2024/03/17 01:22:27;;;;;;;0.30;0.30;;;;;;;;;;6315768;28;20110;-77
2024/03/17 01:25:29;;;;;;;0.50;0.40;;;;;;;;;;6320207;28;20024;-77
2024/03/17 01:28:29;;;;;;;0.50;0.50;;;;;;;;;;6326377;28;20082;-77
2024/03/17 01:31:29;;;;;;;0.50;0.40;;;;;;;;;;6324143;28;20115;-78
2024/03/17 01:34:30;;;;;;;0.53;0.43;;;;;;;;;;6315641;28;20055;-77
2024/03/17 01:37:31;;;;;;;0.60;0.47;;;;;;;;;;6326092;28;20431;-79
2024/03/17 01:40:32;;;;;;;0.50;0.50;;;;;;;;;;6324893;28;20028;-77
2024/03/17 01:43:32;;;;;;;0.73;0.70;;;;;;;;;;6324159;28;20477;-77
2024/03/17 01:46:32;;;;;;;0.50;0.50;;;;;;;;;;6325248;28;20380;-76
2024/03/17 01:49:33;;;;;;;0.50;0.50;;;;;;;;;;6322385;28;20039;-76
2024/03/17 01:52:33;;;;;;;0.60;0.60;;;;;;;;;;6323964;28;20499;-77
2024/03/17 01:55:34;;;;;;;0.67;0.57;;;;;;;;;;6322762;28;20067;-78
2024/03/17 01:58:34;;;;;;;;;;;;;;;;;;6323198;28;20039;-77
2024/03/17 02:01:35;;;;;;;0.52;0.50;;;;;;;;;;6321745;28;19908;-78
2024/03/17 02:04:35;;;;;;;0.60;0.60;;;;;;;;;;6322630;28;20024;-77
2024/03/17 02:07:36;;;;;;;0.90;0.53;;;;;;;;;;6322801;28;20518;-77
2024/03/17 02:10:37;;;;;;;0.60;0.60;;;;;;;;;;6324645;28;20457;-77
2024/03/17 02:13:37;;;;;;;0.75;0.63;;;;;;;;;;6303139;28;20102;-76
2024/03/17 02:16:38;;;;;;;0.70;0.67;;;;;;;;;;6321339;28;20032;-78
2024/03/17 02:19:38;;;;;;;0.60;0.60;;;;;;;;;;6313098;28;20103;-80
2024/03/17 02:22:38;;;;;;;0.70;0.70;;;;;;;;;;6324356;28;20058;-77
2024/03/17 02:25:39;;;;;;;0.70;0.70;;;;;;;;;;6323335;28;20060;-77
2024/03/17 02:28:40;;;;;;;0.70;0.70;;;;;;;;;;6322400;28;20035;-77
2024/03/17 02:31:41;;;;;;;1.42;0.60;;;;;;;;;;6321019;28;20442;-77
2024/03/17 02:34:41;;;;;;;0.50;0.50;;;;;;;;;;6320615;28;20085;-77
2024/03/17 02:37:41;;;;;;;1.80;0.87;;;;;;;;;;6323883;28;20024;-77
2024/03/17 02:40:42;;;;;;;0.63;0.63;;;;;;;;;;6304680;28;20035;-77
2024/03/17 02:43:42;;;;;;;0.97;0.90;;;;;;;;;;6319333;28;20066;-77
2024/03/17 02:46:42;;;;;;;0.83;0.83;;;;;;;;;;6301235;28;20040;-77
2024/03/17 02:49:49;;;;;;;1.07;0.87;;;;;;;;;;6322050;28;20479;-76
2024/03/17 02:52:50;;;;;;;1.05;0.93;;;;;;;;;;6318999;28;20047;-76
2024/03/17 02:56:17;;;;;;;1.27;0.93;;;;;;;;;;6324250;28;20465;-77
2024/03/17 02:59:18;;;;;;;1.15;0.95;;;;;;;;;;6312230;28;20036;-76
2024/03/17 03:02:18;;;;;;;2.20;0.95;;;;;;;;;;6320440;28;20024;-77
2024/03/17 03:05:19;;;;;;;1.10;1.00;;;;;;;;;;6318891;28;20081;-75
2024/03/17 03:08:23;;;;;;;1.60;1.00;;;;;;;;;;6320386;28;20028;-76
2024/03/17 03:11:37;;;;;;;1.30;1.08;;;;;;;;;;6298026;28;20135;-77
2024/03/17 03:14:44;;;;;;;1.17;0.90;;;;;;;;;;6303160;28;20028;-77
2024/03/17 03:18:08;;;;;;;0.95;0.88;;;;;;;;;;6313832;28;20396;-77
2024/03/17 03:21:09;;;;;;;1.02;0.93;;;;;;;;;;6309324;28;20035;-77
2024/03/17 03:24:10;;;;;;;0.88;0.80;;;;;;;;;;6321707;28;20051;-77
2024/03/17 03:27:18;;;;;;;0.82;0.77;;;;;;;;;;6277377;28;20484;-77
2024/03/17 03:30:51;;;;;;;2.95;1.13;;;;;;;;;;6285385;28;20424;-76
2024/03/17 03:33:56;;;;;;;1.20;1.10;;;;;;;;;;6289969;28;20040;-77
2024/03/17 03:37:08;;;;;;;1.10;0.90;;;;;;;;;;6291073;28;20034;-77
2024/03/17 03:40:18;;;;;;;;;;;;;;;;;;6299229;28;20480;-76
2024/03/17 03:43:23;;;;;;;1.10;0.80;;;;;;;;;;6288084;28;19962;-77
2024/03/17 03:46:56;;;;;;;0.80;0.73;;;;;;;;;;6279413;28;20477;-75
2024/03/17 03:49:58;;;;;;;1.20;0.75;;;;;;;;;;6277640;28;20495;-75
2024/03/17 03:53:14;;;;;;;2.00;0.98;;;;;;;;;;6296111;28;20071;-75
2024/03/17 03:56:25;;;;;;;1.08;0.90;;;;;;;;;;6292408;28;20032;-75
2024/03/17 04:00:16;;;;;;;1.08;0.98;;;;;;;;;;6288242;28;20032;-75
2024/03/17 04:03:15;;;;;;;1.25;1.08;;;;;;;;;;6284892;28;20033;-75
2024/03/17 04:06:16;;;;;;;1.20;0.93;;;;;;;;;;6290419;28;20504;-75
2024/03/17 04:09:16;;;;;;;1.40;1.20;;;;;;;;;;6294843;28;20377;-75
2024/03/17 04:12:16;;;;;;;1.20;0.90;;;;;;;;;;6295036;28;20030;-75
2024/03/17 04:15:16;;;;;;;1.57;1.20;;;;;;;;;;6296282;28;20059;-75
2024/03/17 04:18:17;;;;;;;1.40;1.23;;;;;;;;;;6292356;28;20488;-75
2024/03/17 04:21:18;;;;;;;1.83;1.15;;;;;;;;;;6292990;28;20020;-75
2024/03/17 04:24:18;;;;;;;1.53;1.13;;;;;;;;;;6293093;28;20161;-75
2024/03/17 04:27:21;;;;;;;1.20;1.10;;;;;;;;;;6310103;28;20056;-75
2024/03/17 04:30:21;;;;;;;1.50;1.15;;;;;;;;;;6317327;28;20036;-75
2024/03/17 04:33:22;;;;;;;1.20;1.07;;;;;;;;;;6317431;28;20408;-75
2024/03/17 04:36:22;;;;;;;2.67;1.10;;;;;;;;;;6319450;28;20376;-76
2024/03/17 04:39:23;;;;;;;1.17;1.07;;;;;;;;;;6302484;28;20040;-75
2024/03/17 04:42:23;;;;;;;1.50;1.40;;;;;;;;;;6320624;28;20026;-76
2024/03/17 04:45:23;;;;;;;2.80;1.30;;;;;;;;;;6317238;28;20042;-75
2024/03/17 04:48:24;;;;;;;1.30;1.20;;;;;;;;;;6318108;28;20040;-75
2024/03/17 04:51:24;;;;;;;1.53;1.20;;;;;;;;;;6321904;28;20115;-75
2024/03/17 04:54:24;;;;;;;1.93;1.23;;;;;;;;;;6325533;28;20023;-76
2024/03/17 04:57:24;;;;;;;1.40;1.20;;;;;;;;;;6325109;28;20020;-77
2024/03/17 05:00:25;;;;;;;1.57;0.97;;;;;;;;;;6305325;28;20024;-77
2024/03/17 05:03:25;;;;;;;1.57;1.30;;;;;;;;;;6321905;28;20476;-76
2024/03/17 05:06:26;;;;;;;1.70;1.17;;;;;;;;;;6321984;28;20020;-77
2024/03/17 05:09:26;;;;;;;2.63;1.13;;;;;;;;;;6319304;28;20548;-77
2024/03/17 05:12:26;;;;;;;2.17;1.10;;;;;;;;;;6292991;28;20273;-76
2024/03/17 05:15:27;;;;;;;1.70;1.13;;;;;;;;;;6320289;28;20036;-77
2024/03/17 05:18:27;;;;;;;2.87;1.20;;;;;;;;;;6323160;28;20034;-77
2024/03/17 05:21:30;;;;;;;1.90;1.00;;;;;;;;;;6324337;28;20349;-77
2024/03/17 05:24:31;;;;;;;1.98;1.20;;;;;;;;;;6319000;28;20016;-77
2024/03/17 05:27:31;;;;;;;1.30;1.10;;;;;;;;;;6304452;28;20088;-77
2024/03/17 05:30:31;;;;;;;1.17;1.00;;;;;;;;;;6323604;28;20074;-77
2024/03/17 05:33:32;;;;;;;1.20;1.10;;;;;;;;;;6322228;28;20030;-77
2024/03/17 05:36:33;;;;;;;1.10;1.00;;;;;;;;;;6322781;28;20406;-77
2024/03/17 05:39:33;;;;;;;;;;;;;;;;;;6320543;28;20024;-77
2024/03/17 05:42:33;;;;;;;1.23;0.77;;;;;;;;;;6321251;28;19915;-77
2024/03/17 05:45:34;;;;;;;0.90;0.80;;;;;;;;;;6306786;28;20023;-77
2024/03/17 05:48:37;;;;;;;1.17;0.90;;;;;;;;;;6321083;28;20050;-77
2024/03/17 05:51:38;;;;;;;1.08;0.98;;;;;;;;;;6320839;28;20052;-77
2024/03/17 05:54:38;;;;;;;1.37;0.90;;;;;;;;;;6316954;28;20042;-77
2024/03/17 05:57:38;;;;;;;1.70;1.07;;;;;;;;;;6319179;28;20031;-77
2024/03/17 06:00:39;;;;;;;1.80;0.90;;;;;;;;;;6322484;28;20028;-77
2024/03/17 06:03:39;;;;;;;0.68;0.68;;;;;;;;;;6302665;28;20024;-77
2024/03/17 06:06:39;;;;;;;1.00;0.80;;;;;;;;;;6316976;28;20540;-76
2024/03/17 06:09:40;;;;;;;1.73;0.90;;;;;;;;;;6310375;28;20039;-76
2024/03/17 06:12:40;;;;;;;1.30;0.87;;;;;;;;;;6321070;28;20072;-76
2024/03/17 06:15:40;;;;;;;1.07;0.80;;;;;;;;;;6321282;28;20041;-76
2024/03/17 06:18:41;;;;;;;1.57;0.80;;;;;;;;;;6320397;28;20547;-76
2024/03/17 06:21:41;;;;;;;1.70;1.03;;;;;;;;;;6320194;28;20464;-77
2024/03/17 06:24:42;;;;;;;0.90;0.70;;;;;;;;;;6324993;28;20472;-76
2024/03/17 06:27:42;;;;;;;1.00;0.80;;;;;;;;;;6311074;28;20117;-75
2024/03/17 06:30:49;;;;;;;1.90;0.93;;;;;;;;;;6316964;28;20047;-76
2024/03/17 06:33:49;;;;;;;0.85;0.68;;;;;;;;;;6297490;28;20552;-76
2024/03/17 06:36:50;;;;;;;3.83;0.80;;;;;;;;;;6321469;28;20031;-77
2024/03/17 06:39:50;;;;;;;1.10;0.80;;;;;;;;;;6321524;28;20034;-78
2024/03/17 06:42:51;;;;;;;1.10;0.70;;;;;;;;;;6324389;28;20020;-78
2024/03/17 06:45:55;;;;;;;1.33;0.50;;;;;;;;;;6318379;28;20385;-79
2024/03/17 06:48:58;;;;;;;0.68;0.50;;;;;;;;;;6295480;28;20030;-79
2024/03/17 06:51:58;;;;;;;1.38;0.57;;;;;;;;;;6319615;28;20040;-78
2024/03/17 06:54:59;;;;;;;0.97;0.80;;;;;;;;;;6318405;28;20081;-77
2024/03/17 06:57:59;;;;;;;0.60;0.60;;;;;;;;;;6321299;28;20028;-78
2024/03/17 07:01:00;;;;;;;0.97;0.40;;;;;;;;;;6317488;28;20533;-81
2024/03/17 07:04:01;;;;;;;0.77;0.60;;;;;;;;;;6317661;28;20016;-78
2024/03/17 07:07:01;;;;;;;0.57;0.50;;;;;;;;;;6313588;28;20085;-78
2024/03/17 07:10:04;;;;;;;2.80;0.70;;;;;;;;;;6317381;28;20032;-80
2024/03/17 07:13:05;;;;;;;1.85;0.50;;;;;;;;;;6320221;28;20027;-78
2024/03/17 07:16:06;;;;;;;2.17;0.60;;;;;;;;;;6297837;28;20024;-81
2024/03/17 07:19:06;;;;;;;2.05;0.60;;;;;;;;;;6316961;28;20028;-82
2024/03/17 07:22:06;;;;;;;1.50;0.70;;;;;;;;;;6318197;28;20472;-81
2024/03/17 07:25:07;;;;;;;0.77;0.50;;;;;;;;;;6300000;28;20024;-83
2024/03/17 07:28:07;;;;;;;0.90;0.50;;;;;;;;;;6315132;28;20040;-82
2024/03/17 07:31:11;;;;;;;1.00;0.53;;;;;;;;;;6320096;28;20053;-82
2024/03/17 07:34:11;;;;;;;0.75;0.50;;;;;;;;;;6299566;28;20038;-82
2024/03/17 07:37:11;;;;;;;0.97;0.60;;;;;;;;;;6320495;28;20016;-82
2024/03/17 07:40:12;;;;;;;5.13;0.83;;;;;;;;;;6319011;28;20028;-82
2024/03/17 07:43:12;;;;;;;1.00;0.60;;;;;;;;;;6319358;28;20016;-82
2024/03/17 07:46:12;;;;;;;1.20;0.63;;;;;;;;;;6321412;28;20027;-81
2024/03/17 07:49:14;;;;;;;1.13;0.60;;;;;;;;;;6314674;28;20114;-81
2024/03/17 07:52:15;;;;;;;0.47;0.40;;;;;;;;;;6299784;28;20127;-81
2024/03/17 07:55:16;;;;;;;0.73;0.60;;;;;;;;;;6323335;28;20020;-81
2024/03/17 07:58:16;;;;;;;0.53;0.50;;;;;;;;;;6292771;28;20052;-81
2024/03/17 08:01:16;;;;;;;0.80;0.53;;;;;;;;;;6307500;28;20080;-82
2024/03/17 08:04:17;;;;;;;0.50;0.40;;;;;;;;;;6309972;28;20020;-81
2024/03/17 08:07:17;;;;;;;1.40;0.60;;;;;;;;;;6306267;28;20032;-82
2024/03/17 08:10:17;;;;;;;1.90;1.23;;;;;;;;;;6319326;28;20058;-82
2024/03/17 08:13:18;;;;;;;1.20;0.87;;;;;;;;;;6322050;28;20043;-76
2024/03/17 08:16:18;;;;;;;0.77;0.60;;;;;;;;;;6319723;28;20072;-81
2024/03/17 08:19:18;;;;;;;0.90;0.80;;;;;;;;;;6320901;28;20518;-80
2024/03/17 08:22:19;;;;;;;1.47;0.70;;;;;;;;;;6321825;28;20258;-80
2024/03/17 08:25:19;;;;;;;1.07;0.80;;;;;;;;;;6319925;28;20030;-80
2024/03/17 08:28:21;;;;;;;0.70;0.70;;;;;;;;;;6303801;28;20082;-80
2024/03/17 08:31:21;;;;;;;1.58;0.80;;;;;;;;;;6322405;28;20072;-80
2024/03/17 08:34:21;;;;;;;0.60;0.50;;;;;;;;;;6314314;28;20364;-80
2024/03/17 08:37:25;;;;;;;0.83;0.60;;;;;;;;;;6316354;28;20047;-80
2024/03/17 08:40:25;;;;;;;0.70;0.55;;;;;;;;;;6301902;28;20021;-80
2024/03/17 08:43:26;;;;;;;0.67;0.60;;;;;;;;;;6318523;28;20020;-80
2024/03/17 08:46:26;;;;;;;0.70;0.70;;;;;;;;;;6322180;28;20544;-80
2024/03/17 08:49:26;;;;;;;0.80;0.80;;;;;;;;;;6315353;28;20012;-80
2024/03/17 08:52:26;;;;;;;0.90;0.57;;;;;;;;;;6302918;28;20487;-80
2024/03/17 08:55:26;;;;;;;0.73;0.63;;;;;;;;;;6317438;28;20016;-80
2024/03/17 08:58:27;;;;;;;0.83;0.70;;;;;;;;;;6318577;28;20534;-80
2024/03/17 09:01:27;;;;;;;0.40;0.40;;;;;;;;;;6301537;28;20511;-80
2024/03/17 09:04:27;;;;;;;1.53;0.70;;;;;;;;;;6318811;28;20024;-80
2024/03/17 09:07:28;;;;;;;0.80;0.60;;;;;;;;;;6319083;28;20020;-79
2024/03/17 09:10:28;;;;;;;1.10;0.80;;;;;;;;;;6320759;28;20032;-79
2024/03/17 09:13:28;;;;;;;0.63;0.60;;;;;;;;;;6312710;28;20037;-79
2024/03/17 09:16:30;;;;;;;1.97;0.70;;;;;;;;;;6310894;28;20040;-79
2024/03/17 09:19:30;;;;;;;0.70;0.57;;;;;;;;;;6312504;28;20034;-79
2024/03/17 09:22:30;;;;;;;1.00;0.70;;;;;;;;;;6296222;28;20027;-79
2024/03/17 09:25:31;;;;;;;1.50;1.27;;;;;;;;;;6316360;28;20059;-80
2024/03/17 09:28:32;;;;;;;1.00;0.80;;;;;;;;;;6291005;28;20024;-82
2024/03/17 09:31:35;;;;;;;0.80;0.80;;;;;;;;;;6316772;28;20020;-80
2024/03/17 09:34:35;;;;;;;0.70;0.60;;;;;;;;;;6309324;28;20028;-78
2024/03/17 09:37:36;;;;;;;0.97;0.60;;;;;;;;;;6318962;28;20016;-78
2024/03/17 09:40:37;;;;;;;0.93;0.70;;;;;;;;;;6302707;28;20048;-77
2024/03/17 09:43:38;;;;;;;0.53;0.50;;;;;;;;;;6305440;28;20023;-78
2024/03/17 09:46:38;;;;;;;1.23;0.82;;;;;;;;;;6303823;28;20115;-80
2024/03/17 09:49:38;;;;;;;0.70;0.50;;;;;;;;;;6313153;28;20453;-78
2024/03/17 09:52:39;;;;;;;0.77;0.60;;;;;;;;;;6301365;28;20108;-79
2024/03/17 09:55:39;;;;;;;0.50;0.50;;;;;;;;;;6310418;28;20047;-78
2024/03/17 09:58:40;;;;;;;0.60;0.60;;;;;;;;;;6308066;28;20046;-78
2024/03/17 10:01:42;;;;;;;0.52;0.52;;;;;;;;;;6317899;28;20069;-78
2024/03/17 10:04:42;;;;;;;1.23;0.57;;;;;;;;;;6325665;28;20028;-77
2024/03/17 10:07:43;;;;;;;1.30;0.60;;;;;;;;;;6323547;28;20420;-79
2024/03/17 10:10:43;;;;;;;1.27;0.60;;;;;;;;;;6313620;28;20103;-77
2024/03/17 10:13:43;;;;;;;0.60;0.60;;;;;;;;;;6306122;28;20066;-77
2024/03/17 10:16:45;;;;;;;1.00;0.60;;;;;;;;;;6324762;28;20016;-79
2024/03/17 10:19:45;;;;;;;0.70;0.70;;;;;;;;;;6323157;28;20314;-81
2024/03/17 10:23:01;;;;;;;1.00;0.60;;;;;;;;;;6321387;28;20039;-78
2024/03/17 10:26:02;;;;;;;2.10;0.70;;;;;;;;;;6324648;28;20048;-78
2024/03/17 10:29:04;;;;;;;0.70;0.60;;;;;;;;;;6324850;28;20031;-78
2024/03/17 10:32:16;;;;;;;0.70;0.40;;;;;;;;;;6323436;28;20516;-78
2024/03/17 10:35:25;;;;;;;1.13;0.50;;;;;;;;;;6320253;28;20028;-78
2024/03/17 10:38:27;;;;;;;0.75;0.60;;;;;;;;;;6305985;28;20028;-77
2024/03/17 10:41:28;;;;;;;1.02;0.60;;;;;;;;;;6322348;28;20396;-78
2024/03/17 10:44:30;;;;;;;0.50;0.50;;;;;;;;;;6318926;28;20020;-83
2024/03/17 10:47:31;;;;;;;0.63;0.63;;;;;;;;;;6323436;28;20031;-81
2024/03/17 10:50:34;;;;;;;0.60;0.55;;;;;;;;;;6320169;28;20372;-81
2024/03/17 10:53:34;;;;;;;0.65;0.50;;;;;;;;;;6324484;28;20042;-77
2024/03/17 10:56:34;;;;;;;0.90;0.53;;;;;;;;;;6324176;28;20024;-75
2024/03/17 10:59:39;;;;;;;1.10;0.47;;;;;;;;;;6312139;28;20068;-76
2024/03/17 11:02:40;;;;;;;0.70;0.50;;;;;;;;;;6316413;28;20388;-77
2024/03/17 11:05:41;;;;;;;0.50;0.50;;;;;;;;;;6321781;28;20028;-77
2024/03/17 11:08:42;;;;;;;0.60;0.50;;;;;;;;;;6320472;28;20046;-77
2024/03/17 11:11:43;;;;;;;0.50;0.50;;;;;;;;;;6319321;28;20161;-76
2024/03/17 11:14:44;;;;;;;0.60;0.50;;;;;;;;;;6323096;28;20036;-81
2024/03/17 11:17:47;;;;;;;0.47;0.47;;;;;;;;;;6313067;28;20067;-80
2024/03/17 11:21:10;;;;;;;1.63;0.60;;;;;;;;;;6320800;28;20089;-86
2024/03/17 11:24:20;;;;;;;0.90;0.57;;;;;;;;;;6320019;28;20537;-79
2024/03/17 11:27:39;;;;;;;1.30;0.60;;;;;;;;;;6321732;28;20449;-79
2024/03/17 11:30:40;;;;;;;0.70;0.45;;;;;;;;;;6302666;28;20063;-82
2024/03/17 11:33:40;;;;;;;0.57;0.50;;;;;;;;;;6298771;28;20456;-80
2024/03/17 11:36:40;;;;;;;0.43;0.40;;;;;;;;;;6304934;28;20460;-76
2024/03/17 11:39:53;;;;;;;0.53;0.40;;;;;;;;;;6318636;28;20052;-76
2024/03/17 11:43:03;;;;;;;0.45;0.45;;;;;;;;;;6321098;28;20028;-76
2024/03/17 11:46:03;;;;;;;0.45;0.38;;;;;;;;;;6320673;28;20089;-76
2024/03/17 11:49:03;;;;;;;0.40;0.40;;;;;;;;;;6319963;28;20032;-76
2024/03/17 11:52:13;;;;;;;0.63;0.50;;;;;;;;;;6321104;28;20419;-76
2024/03/17 11:55:18;;;;;;;0.43;0.40;;;;;;;;;;6320652;28;20036;-75
2024/03/17 11:58:19;;;;;;;0.98;0.60;;;;;;;;;;6309488;28;20392;-75
2024/03/17 12:01:20;;;;;;;0.50;0.50;;;;;;;;;;6319397;28;20032;-76
2024/03/17 12:04:21;;;;;;;0.77;0.63;;;;;;;;;;6318983;28;20087;-76
2024/03/17 12:07:23;;;;;;;0.80;0.45;;;;;;;;;;6319955;28;20057;-76
2024/03/17 12:10:23;;;;;;;1.75;0.60;;;;;;;;;;6322051;28;20107;-75
2024/03/17 12:13:24;;;;;;;0.90;0.63;;;;;;;;;;6321192;28;20752;-74
2024/03/17 12:16:24;;;;;;;0.90;0.50;;;;;;;;;;6318726;28;20080;-74
2024/03/17 12:19:25;;;;;;;0.40;0.40;;;;;;;;;;6318164;28;20032;-74
2024/03/17 12:22:27;;;;;;;0.93;0.50;;;;;;;;;;6321867;28;20028;-76
2024/03/17 12:25:29;;;;;;;0.77;0.47;;;;;;;;;;6322261;28;20031;-79
2024/03/17 12:28:29;;;;;;;1.25;0.40;;;;;;;;;;6250837;28;20037;-79
2024/03/17 12:31:29;;;;;;;0.60;0.50;;;;;;;;;;6263205;28;20578;-82
2024/03/17 12:34:34;;;;;;;0.80;0.50;;;;;;;;;;6270711;28;20070;-81
2024/03/17 12:37:34;;;;;;;0.50;0.40;;;;;;;;;;6264509;28;20397;-81
2024/03/17 12:40:34;;;;;;;0.50;0.40;;;;;;;;;;6272951;28;20032;-82
2024/03/17 12:43:34;;;;;;;0.50;0.40;;;;;;;;;;6272374;28;20029;-81
2024/03/17 12:46:38;;;;;;;0.57;0.40;;;;;;;;;;6270906;28;20017;-81
2024/03/17 12:49:43;;;;;;;0.47;0.40;;;;;;;;;;6269130;28;20032;-78
2024/03/17 12:53:02;;;;;;;0.40;0.40;;;;;;;;;;6265170;28;20044;-77
2024/03/17 13:02:43;;;;;;;0.50;0.32;;;;;;;;;;6261526;28;20029;-76
2024/03/17 13:05:47;;;;;;;0.52;0.40;;;;;;;;;;6268960;28;20490;-76
2024/03/17 13:08:48;;;;;;;0.40;0.40;;;;;;;;;;6262980;28;20032;-76
2024/03/17 13:11:49;;;;;;;0.98;0.40;;;;;;;;;;6267344;28;20021;-77
2024/03/17 13:14:49;;;;;;;0.57;0.50;;;;;;;;;;6276911;28;20040;-76
2024/03/17 13:17:49;;;;;;;0.70;0.50;;;;;;;;;;6275080;28;20021;-76
2024/03/17 13:20:49;;;;;;;0.40;0.40;;;;;;;;;;6268775;28;20022;-76
2024/03/17 13:23:50;;;;;;;0.40;0.40;;;;;;;;;;6268534;28;20029;-76
2024/03/17 13:26:50;;;;;;;0.60;0.50;;;;;;;;;;6292363;28;20047;-76
2024/03/17 13:29:51;;;;;;;3.33;2.40;;;;;;;;;;6309897;28;20028;-76
2024/03/17 13:33:00;;;;;;;1.53;1.40;;;;;;;;;;6309765;28;20098;-76
2024/03/17 13:36:00;;;;;;;1.25;1.00;;;;;;;;;;6325200;28;20503;-76
2024/03/17 13:39:00;;;;;;;1.03;0.53;;;;;;;;;;6324099;28;20028;-76
2024/03/17 13:42:03;;;;;;;2.63;0.50;;;;;;;;;;6325453;28;20120;-76
2024/03/17 13:45:04;;;;;;;0.77;0.55;;;;;;;;;;6324975;28;20028;-76
2024/03/17 13:48:05;;;;;;;1.23;0.80;;;;;;;;;;6298783;28;20031;-76
2024/03/17 13:51:05;;;;;;;;;;;;;;;;;;6304229;28;20060;-77
2024/03/17 13:54:06;;;;;;;0.93;0.50;;;;;;;;;;6323124;28;19926;-76
2024/03/17 13:57:06;;;;;;;1.85;0.50;;;;;;;;;;6326009;28;20388;-76
2024/03/17 14:00:07;;;;;;;0.50;0.40;;;;;;;;;;6319070;28;20036;-76
2024/03/17 14:03:08;;;;;;;;;;;;;;;;;;6309834;28;20024;-76
2024/03/17 14:06:08;;;;;;;0.47;0.37;;;;;;;;;;6325131;28;19904;-77
2024/03/17 14:09:09;;;;;;;1.42;0.60;;;;;;;;;;6323425;28;20115;-76
2024/03/17 14:12:09;;;;;;;0.28;0.28;;;;;;;;;;6324186;28;20530;-79
2024/03/17 14:15:10;;;;;;;0.90;0.50;;;;;;;;;;6324259;28;20054;-79
2024/03/17 14:18:11;;;;;;;;;;;;;;;;;;6315728;28;20042;-76
2024/03/17 14:21:11;;;;;;;0.70;0.40;;;;;;;;;;6314063;28;19948;-75
2024/03/17 14:24:11;;;;;;;0.40;0.40;;;;;;;;;;6325048;28;20031;-78
2024/03/17 14:27:12;;;;;;;0.60;0.40;;;;;;;;;;6326015;28;20044;-77
2024/03/17 14:30:15;;;;;;;0.47;0.45;;;;;;;;;;6325450;28;20044;-76
2024/03/17 14:33:15;;;;;;;0.80;0.50;;;;;;;;;;6300939;28;20481;-76
2024/03/17 14:36:15;;;;;;;0.50;0.40;;;;;;;;;;6306283;28;20020;-76
2024/03/17 14:39:15;;;;;;;0.67;0.53;;;;;;;;;;6324789;28;20024;-76
2024/03/17 14:42:16;;;;;;;1.80;0.50;;;;;;;;;;6325944;28;20035;-76
2024/03/17 14:45:17;;;;;;;2.53;0.40;;;;;;;;;;6326041;28;20016;-76
2024/03/17 14:48:17;;;;;;;1.10;0.40;;;;;;;;;;6322084;28;20034;-76
2024/03/17 14:51:18;;;;;;;0.50;0.33;;;;;;;;;;6324044;28;20431;-76
2024/03/17 14:54:18;;;;;;;0.57;0.47;;;;;;;;;;6307220;28;20465;-76
2024/03/17 14:57:20;;;;;;;0.33;0.30;;;;;;;;;;6324492;28;20457;-76
2024/03/17 15:00:20;;;;;;;0.70;0.50;;;;;;;;;;6322421;28;20016;-76
2024/03/17 15:03:21;;;;;;;0.90;0.50;;;;;;;;;;6322811;28;20032;-75
2024/03/17 15:06:21;;;;;;;1.10;0.57;;;;;;;;;;6324668;28;20385;-75
2024/03/17 15:09:21;;;;;;;0.97;0.57;;;;;;;;;;6323199;28;20443;-76
2024/03/17 15:12:21;;;;;;;0.47;0.43;;;;;;;;;;6321823;28;20032;-76
2024/03/17 15:15:22;;;;;;;0.53;0.47;;;;;;;;;;6322655;28;20020;-77
2024/03/17 15:18:22;;;;;;;1.57;0.30;;;;;;;;;;6317950;28;20036;-77
2024/03/17 15:21:22;;;;;;;0.90;0.70;;;;;;;;;;6321847;28;20020;-76
2024/03/17 15:24:23;;;;;;;1.10;0.70;;;;;;;;;;6320695;28;20045;-76
2024/03/17 15:27:23;;;;;;;0.70;0.37;;;;;;;;;;6321579;28;20500;-77
2024/03/17 15:30:25;;;;;;;0.30;0.30;;;;;;;;;;6323129;28;20388;-76
2024/03/17 15:33:26;;;;;;;0.43;0.35;;;;;;;;;;6316195;28;20037;-76
2024/03/17 15:36:26;;;;;;;0.57;0.38;;;;;;;;;;6321417;28;20393;-76
2024/03/17 15:39:28;;;;;;;0.25;0.25;;;;;;;;;;6316830;28;20032;-77
2024/03/17 15:42:28;;;;;;;;;;;;;;;;;;6318120;28;20028;-80
2024/03/17 15:45:28;;;;;;;0.30;0.30;;;;;;;;;;6321589;28;20287;-82
2024/03/17 15:48:28;;;;;;;0.70;0.43;;;;;;;;;;6316165;28;20012;-76
2024/03/17 15:51:29;;;;;;;1.50;0.30;;;;;;;;;;6320418;28;20032;-75
2024/03/17 15:54:29;;;;;;;0.67;0.30;;;;;;;;;;6320175;28;20077;-75
2024/03/17 15:57:29;;;;;;;0.57;0.40;;;;;;;;;;6320893;28;20042;-75
2024/03/17 16:00:30;;;;;;;0.60;0.40;;;;;;;;;;6317921;28;20036;-75
2024/03/17 16:03:30;;;;;;;0.40;0.40;;;;;;;;;;6316926;28;20358;-75
2024/03/17 16:06:31;;;;;;;0.80;0.40;;;;;;;;;;6320133;28;20032;-75
2024/03/17 16:09:31;;;;;;;1.13;0.40;;;;;;;;;;6316928;28;20465;-79
2024/03/17 16:12:34;;;;;;;0.88;0.68;;;;;;;;;;6308847;28;20347;-81
2024/03/17 16:15:34;;;;;;;0.93;0.60;;;;;;;;;;6315518;28;20051;-79
2024/03/17 16:18:34;;;;;;;1.70;0.50;;;;;;;;;;6312268;28;20034;-79
2024/03/17 16:21:34;;;;;;;0.87;0.40;;;;;;;;;;6316956;28;20110;-77
2024/03/17 16:24:35;;;;;;;1.57;0.50;;;;;;;;;;6317920;28;20496;-77
2024/03/17 16:27:35;;;;;;;0.30;0.30;;;;;;;;;;6306012;28;20052;-77
2024/03/17 16:30:37;;;;;;;0.50;0.37;;;;;;;;;;6321183;28;20105;-80
2024/03/17 16:33:37;;;;;;;1.35;0.60;;;;;;;;;;6290827;28;20422;-77
2024/03/17 16:36:43;;;;;;;0.73;0.23;;;;;;;;;;6316604;28;20027;-77
2024/03/17 16:39:43;;;;;;;0.82;0.60;;;;;;;;;;6297326;28;20031;-80
2024/03/17 16:42:43;;;;;;;1.20;0.50;;;;;;;;;;6286438;28;20474;-82
2024/03/17 16:45:50;;;;;;;0.50;0.40;;;;;;;;;;6313626;28;20043;-79
2024/03/17 16:48:51;;;;;;;0.90;0.40;;;;;;;;;;6317444;28;20016;-80
2024/03/17 16:51:52;;;;;;;1.17;0.40;;;;;;;;;;6300445;28;20387;-79
2024/03/17 16:54:53;;;;;;;0.40;0.40;;;;;;;;;;6321189;28;20415;-78
2024/03/17 16:57:53;;;;;;;0.82;0.55;;;;;;;;;;6325870;28;20530;-84
2024/03/17 17:00:54;;;;;;;0.63;0.38;;;;;;;;;;6325892;28;20024;-76
2024/03/17 17:03:57;;;;;;;0.90;0.40;;;;;;;;;;6315118;28;20171;-76
2024/03/17 17:06:57;;;;;;;0.98;0.50;;;;;;;;;;6312386;28;20460;-79
2024/03/17 17:09:59;;;;;;;0.67;0.40;;;;;;;;;;6318211;28;20030;-79
2024/03/17 17:12:59;;;;;;;;;;;;;;;;;;6318186;28;20488;-79
2024/03/17 17:15:59;;;;;;;0.80;0.60;;;;;;;;;;6326410;28;19954;-79
2024/03/17 17:19:04;;;;;;;0.50;0.40;;;;;;;;;;6316557;28;20028;-79
2024/03/17 17:22:05;;;;;;;0.57;0.38;;;;;;;;;;6316213;28;20026;-81
2024/03/17 17:25:07;;;;;;;1.42;0.90;;;;;;;;;;6320088;28;20107;-80
2024/03/17 17:28:07;;;;;;;2.08;1.35;;;;;;;;;;6303868;28;20055;-80
2024/03/17 17:31:07;;;;;;;1.70;1.13;;;;;;;;;;6320958;28;20365;-81
2024/03/17 17:34:07;;;;;;;1.73;0.90;;;;;;;;;;6315375;28;20481;-79
2024/03/17 17:37:11;;;;;;;2.23;0.90;;;;;;;;;;6316050;28;20028;-78
2024/03/17 17:40:12;;;;;;;2.28;0.80;;;;;;;;;;6321032;28;20020;-82
2024/03/17 17:43:12;;;;;;;1.77;0.83;;;;;;;;;;6319911;28;20025;-81
2024/03/17 17:46:13;;;;;;;1.27;0.63;;;;;;;;;;6318456;28;20017;-80
2024/03/17 17:49:13;;;;;;;1.42;0.85;;;;;;;;;;6310765;28;20056;-80
2024/03/17 17:52:14;;;;;;;1.10;0.70;;;;;;;;;;6304814;28;20054;-78
2024/03/17 17:55:15;;;;;;;1.07;0.87;;;;;;;;;;6314176;28;20346;-79
2024/03/17 17:58:15;;;;;;;1.80;0.75;;;;;;;;;;6293558;28;20051;-79
2024/03/17 18:01:16;;;;;;;1.73;0.90;;;;;;;;;;6323053;28;20036;-78
2024/03/17 18:04:16;;;;;;;2.15;0.90;;;;;;;;;;6321285;28;20016;-78
2024/03/17 18:07:17;;;;;;;1.50;1.10;;;;;;;;;;6318394;28;20028;-79
2024/03/17 18:10:17;;;;;;;2.00;1.17;;;;;;;;;;6297785;28;20065;-78
2024/03/17 18:13:18;;;;;;;1.57;1.20;;;;;;;;;;6314402;28;20099;-78
2024/03/17 18:16:18;;;;;;;3.37;1.40;;;;;;;;;;6314232;28;20028;-78
2024/03/17 18:19:19;;;;;;;1.92;1.20;;;;;;;;;;6316209;28;20112;-78